Time;durP1;ratioP1;P1;durP2;ratioP2;P2;SDS_P1;SDS_P2;PMS_P1;PMS_P2;Temp;Humidity;BMP_temperature;BMP_pressure;BME280_temperature;BME280_humidity;BME280_pressure;Samples;Min_cycle;Max_cycle;Signal;HPM_P1;HPM_P2
2022/07/09 00:00:06;;;;;;;;;;;;;;;17.44;69.44;102787.31;5060508;28;19924;-58
2022/07/09 00:02:31;;;;;;;;;;;;;;;17.44;69.42;102787.31;5063500;28;19924;-58
2022/07/09 00:04:56;;;;;;;;;;;;;;;17.42;69.77;102790.16;5059020;28;19924;-58
2022/07/09 00:07:22;;;;;;;;;;;;;;;17.40;69.42;102786.81;5063470;28;19928;-58
2022/07/09 00:09:47;;;;;;;;;;;;;;;17.40;69.69;102788.63;5063786;28;19947;-58
2022/07/09 00:12:12;;;;;;;;;;;;;;;17.38;69.79;102782.59;5060899;28;19924;-59
2022/07/09 00:14:37;;;;;;;;;;;;;;;17.33;69.99;102786.59;5055123;28;19966;-58
2022/07/09 00:17:03;;;;;;;;;;;;;;;17.28;70.08;102783.56;5068765;28;20174;-59
2022/07/09 00:19:28;;;;;;;;;;;;;;;17.25;70.35;102789.22;5073549;28;19923;-58
2022/07/09 00:21:53;;;;;;;;;;;;;;;17.25;70.76;102783.00;5074413;28;19956;-58
2022/07/09 00:24:18;;;;;;;;;;;;;;;17.20;70.24;102781.66;5062191;28;19921;-59
2022/07/09 00:26:43;;;;;;;;;;;;;;;17.16;71.10;102782.13;5057297;28;19935;-59
2022/07/09 00:29:09;;;;;;;;;;;;;;;17.08;70.91;102782.94;5053042;28;20681;-59
2022/07/09 00:31:34;;;;;;;;;;;;;;;17.01;71.61;102782.69;5061832;28;19970;-57
2022/07/09 00:33:59;;;;;;;;;;;;;;;16.90;71.09;102788.28;5074620;28;19981;-59
2022/07/09 00:36:24;;;;;;;;;;;;;;;16.79;71.19;102778.66;5063045;28;20722;-57
2022/07/09 00:38:49;;;;;;;;;;;;;;;16.74;71.50;102781.81;5061075;28;20022;-59
2022/07/09 00:41:15;;;;;;;;;;;;;;;16.72;73.09;102778.44;5074871;28;19974;-58
2022/07/09 00:43:45;;;;;;;;;;;;;;;16.66;73.25;102774.56;5066890;28;19934;-57
2022/07/09 00:46:10;;;;;;;;;;;;;;;16.59;72.61;102772.63;5055021;28;19928;-57
2022/07/09 00:48:35;;;;;;;;;;;;;;;16.56;72.85;102778.28;5053515;28;19938;-59
2022/07/09 00:51:01;;;;;;;;;;;;;;;16.53;72.49;102780.28;5061522;28;20386;-58
2022/07/09 00:53:26;;;;;;;;;;;;;;;16.49;73.10;102780.75;5067190;28;19931;-57
2022/07/09 00:55:51;;;;;;;;;;;;;;;16.43;74.03;102784.88;5057449;28;20031;-58
2022/07/09 00:58:18;;;;;;;;;;;;;;;16.35;72.70;102776.78;5056551;28;20359;-57
2022/07/09 01:00:44;;;;;;;;;;;;;;;16.33;74.16;102778.78;5063088;28;19925;-57
2022/07/09 01:03:09;;;;;;;;;;;;;;;16.33;72.37;102784.13;5059242;28;19925;-60
2022/07/09 01:05:38;;;;;;;;;;;;;;;16.36;72.20;102779.31;5058645;28;19921;-57
2022/07/09 01:08:04;;;;;;;;;;;;;;;16.38;72.45;102779.16;5060081;28;19973;-59
2022/07/09 01:10:29;;;;;;;;;;;;;;;16.38;72.57;102776.50;5065270;28;19964;-59
2022/07/09 01:12:55;;;;;;;;;;;;;;;16.40;72.17;102774.50;5061108;28;19970;-59
2022/07/09 01:15:20;;;;;;;;;;;;;;;16.42;72.00;102772.50;5062894;28;19964;-58
2022/07/09 01:17:45;;;;;;;;;;;;;;;16.45;72.31;102761.50;5052244;28;19928;-58
2022/07/09 01:20:11;;;;;;;;;;;;;;;16.48;72.11;102758.50;5061407;28;19924;-59
2022/07/09 01:22:36;;;;;;;;;;;;;;;16.47;72.71;102759.50;5051335;28;19947;-57
2022/07/09 01:25:04;;;;;;;;;;;;;;;16.47;72.21;102764.03;5051228;28;19924;-57
2022/07/09 01:27:30;;;;;;;;;;;;;;;16.44;73.10;102762.47;5063672;28;20413;-59
2022/07/09 01:29:55;;;;;;;;;;;;;;;16.43;72.77;102755.41;5058796;28;19928;-57
2022/07/09 01:32:20;;;;;;;;;;;;;;;16.43;73.14;102751.91;5056529;28;19923;-60
2022/07/09 01:34:45;;;;;;;;;;;;;;;16.42;73.43;102751.06;5060716;28;19924;-57
2022/07/09 01:37:10;;;;;;;;;;;;;;;16.38;73.33;102745.19;5057665;28;19928;-58
2022/07/09 01:39:49;;;;;;;;;;;;;;;16.35;72.78;102739.28;5061534;28;20003;-60
2022/07/09 01:42:15;;;;;;;;;;;;;;;16.33;72.96;102733.25;5073632;28;19924;-58
2022/07/09 01:44:40;;;;;;;;;;;;;;;16.35;72.40;102736.63;5086195;28;19921;-59
2022/07/09 01:47:05;;;;;;;;;;;;;;;16.35;72.80;102733.94;5065247;28;19974;-58
2022/07/09 01:49:30;;;;;;;;;;;;;;;16.35;72.86;102733.94;5046279;28;19916;-58
2022/07/09 01:51:55;;;;;;;;;;;;;;;16.32;72.81;102737.75;5046927;28;19978;-57
2022/07/09 01:54:20;;;;;;;;;;;;;;;16.24;74.96;102738.53;5065996;28;19924;-58
2022/07/09 01:56:46;;;;;;;;;;;;;;;16.14;73.82;102737.78;5073527;28;19980;-57
2022/07/09 01:59:11;;;;;;;;;;;;;;;16.08;75.45;102733.84;5063735;28;20286;-58
2022/07/09 02:01:36;;;;;;;;;;;;;;;15.99;74.14;102735.59;5055295;28;19970;-59
2022/07/09 02:04:01;;;;;;;;;;;;;;;15.97;73.85;102737.59;5072968;28;20291;-59
2022/07/09 02:06:27;;;;;;;;;;;;;;;15.95;75.18;102728.91;5077428;28;19937;-59
2022/07/09 02:08:53;;;;;;;;;;;;;;;15.94;74.57;102737.88;5056842;28;20282;-59
2022/07/09 02:11:18;;;;;;;;;;;;;;;15.92;74.00;102726.50;5069701;28;19925;-58
2022/07/09 02:13:43;;;;;;;;;;;;;;;15.95;73.85;102723.53;5065043;28;20032;-57
2022/07/09 02:16:08;;;;;;;;;;;;;;;15.97;73.94;102716.19;5062034;28;19951;-59
2022/07/09 02:18:33;;;;;;;;;;;;;;;15.98;74.24;102728.56;5058365;28;19921;-58
2022/07/09 02:20:59;;;;;;;;;;;;;;;15.95;74.55;102726.22;5054031;28;19928;-58
2022/07/09 02:23:24;;;;;;;;;;;;;;;15.93;74.62;102720.16;5050626;28;19971;-58
2022/07/09 02:25:49;;;;;;;;;;;;;;;15.94;73.85;102721.84;5056198;28;19990;-58
2022/07/09 02:28:14;;;;;;;;;;;;;;;15.93;74.11;102720.16;5069862;28;19928;-57
2022/07/09 02:30:40;;;;;;;;;;;;;;;15.94;73.76;102716.47;5059473;28;19928;-57
2022/07/09 02:33:05;;;;;;;;;;;;;;;15.93;73.63;102712.13;5073834;28;20013;-58
2022/07/09 02:35:31;;;;;;;;;;;;;;;15.91;74.03;102711.41;5065178;28;20010;-57
2022/07/09 02:37:56;;;;;;;;;;;;;;;15.89;74.59;102728.63;5064582;28;20401;-58
2022/07/09 02:40:21;;;;;;;;;;;;;;;15.83;74.08;102714.00;5046235;28;19928;-58
2022/07/09 02:42:46;;;;;;;;;;;;;;;15.79;73.98;102717.97;5073577;28;19924;-59
2022/07/09 02:45:12;;;;;;;;;;;;;;;15.79;74.22;102717.97;5061797;28;19935;-57
2022/07/09 02:47:37;;;;;;;;;;;;;;;15.72;74.41;102707.88;5065347;28;19924;-57
2022/07/09 02:50:02;;;;;;;;;;;;;;;15.70;74.51;102709.03;5069459;28;19935;-58
2022/07/09 02:52:28;;;;;;;;;;;;;;;15.67;74.88;102704.81;5058859;28;20412;-57
2022/07/09 02:54:53;;;;;;;;;;;;;;;15.64;74.56;102702.41;5063486;28;19928;-57
2022/07/09 02:57:18;;;;;;;;;;;;;;;15.62;74.92;102698.22;5065521;28;19931;-59
2022/07/09 02:59:43;;;;;;;;;;;;;;;15.62;74.99;102695.53;5065191;28;19920;-58
2022/07/09 03:02:09;;;;;;;;;;;;;;;15.58;75.14;102700.34;5070233;28;20338;-60
2022/07/09 03:04:34;;;;;;;;;;;;;;;15.58;74.69;102695.84;5072896;28;19924;-57
2022/07/09 03:06:59;;;;;;;;;;;;;;;15.58;75.17;102701.19;5059446;28;19928;-58
2022/07/09 03:09:24;;;;;;;;;;;;;;;15.59;74.92;102704.69;5064683;28;20286;-57
2022/07/09 03:11:49;;;;;;;;;;;;;;;15.57;75.18;102696.00;5061308;28;20059;-58
2022/07/09 03:14:14;;;;;;;;;;;;;;;15.54;75.12;102693.63;5065430;28;19947;-57
2022/07/09 03:16:40;;;;;;;;;;;;;;;15.49;75.64;102701.25;5065535;28;19921;-58
2022/07/09 03:19:05;;;;;;;;;;;;;;;15.44;75.13;102694.50;5064816;28;20305;-59
2022/07/09 03:21:30;;;;;;;;;;;;;;;15.41;76.07;102697.50;5067504;28;19924;-57
2022/07/09 03:23:55;;;;;;;;;;;;;;;15.36;76.14;102698.91;5066942;28;20005;-58
2022/07/09 03:26:21;;;;;;;;;;;;;;;15.27;75.86;102698.81;5053682;28;19925;-57
2022/07/09 03:28:46;;;;;;;;;;;;;;;15.20;76.21;102698.56;5063058;28;20355;-58
2022/07/09 03:31:11;;;;;;;;;;;;;;;15.16;75.54;102691.81;5061226;28;20021;-58
2022/07/09 03:33:36;;;;;;;;;;;;;;;15.15;75.96;102695.47;5065399;28;19924;-57
2022/07/09 03:36:02;;;;;;;;;;;;;;;15.19;75.72;102696.88;5069274;28;19928;-57
2022/07/09 03:38:27;;;;;;;;;;;;;;;15.19;76.13;102694.19;5061313;28;20562;-58
2022/07/09 03:40:52;;;;;;;;;;;;;;;15.16;75.97;102701.66;5057145;28;19928;-58
2022/07/09 03:43:18;;;;;;;;;;;;;;;15.08;75.81;102702.41;5060810;28;19938;-58
2022/07/09 03:45:43;;;;;;;;;;;;;;;15.04;75.85;102703.66;5062294;28;19925;-57
2022/07/09 03:48:09;;;;;;;;;;;;;;;15.04;76.08;102706.34;5065349;28;20370;-57
2022/07/09 03:50:34;;;;;;;;;;;;;;;15.01;76.35;102693.28;5055778;28;19925;-57
2022/07/09 03:52:59;;;;;;;;;;;;;;;14.99;76.51;102700.63;5068000;28;19928;-58
2022/07/09 03:55:24;;;;;;;;;;;;;;;14.99;76.31;102703.28;5057211;28;20583;-59
2022/07/09 03:57:49;;;;;;;;;;;;;;;14.98;76.45;102704.25;5066004;28;19955;-58
2022/07/09 04:00:15;;;;;;;;;;;;;;;15.00;76.20;102702.28;5055982;28;19935;-56
2022/07/09 04:02:41;;;;;;;;;;;;;;;15.02;75.98;102694.97;5052881;28;19925;-57
2022/07/09 04:05:07;;;;;;;;;;;;;;;15.05;76.54;102698.19;5063767;28;20667;-59
2022/07/09 04:07:32;;;;;;;;;;;;;;;15.07;76.41;102692.69;5054611;28;20018;-58
2022/07/09 04:09:57;;;;;;;;;;;;;;;15.07;76.29;102693.53;5064769;28;19948;-58
2022/07/09 04:12:22;;;;;;;;;;;;;;;15.11;76.27;102694.09;5061113;28;20397;-57
2022/07/09 04:14:48;;;;;;;;;;;;;;;15.12;76.75;102695.78;5072487;28;19970;-59
2022/07/09 04:17:13;;;;;;;;;;;;;;;15.10;77.42;102700.41;5067737;28;19942;-57
2022/07/09 04:19:38;;;;;;;;;;;;;;;15.05;76.46;102695.50;5045126;28;19929;-56
2022/07/09 04:22:04;;;;;;;;;;;;;;;15.08;76.41;102694.38;5064328;28;20045;-59
2022/07/09 04:24:29;;;;;;;;;;;;;;;15.09;77.13;102688.03;5067682;28;19925;-57
2022/07/09 04:26:55;;;;;;;;;;;;;;;15.09;76.38;102680.03;5063195;28;19928;-57
2022/07/09 04:29:20;;;;;;;;;;;;;;;15.10;76.66;102675.53;5061977;28;20404;-59
2022/07/09 04:31:45;;;;;;;;;;;;;;;15.13;76.90;102676.09;5053800;28;19924;-58
2022/07/09 04:34:10;;;;;;;;;;;;;;;15.18;76.90;102679.16;5062141;28;19970;-58
2022/07/09 04:36:35;;;;;;;;;;;;;;;15.23;76.68;102680.53;5055130;28;19924;-58
2022/07/09 04:39:01;;;;;;;;;;;;;;;15.27;76.97;102687.28;5047586;28;19948;-58
2022/07/09 04:41:26;;;;;;;;;;;;;;;15.30;76.56;102687.81;5066565;28;19924;-56
2022/07/09 04:43:51;;;;;;;;;;;;;;;15.37;77.10;102682.72;5059775;28;19924;-58
2022/07/09 04:46:16;;;;;;;;;;;;;;;15.42;76.92;102680.47;5077501;28;20286;-60
2022/07/09 04:48:44;;;;;;;;;;;;;;;15.50;77.02;102674.38;5052347;28;20458;-60
2022/07/09 04:51:09;;;;;;;;;;;;;;;15.59;76.71;102680.63;5051123;28;19924;-58
2022/07/09 04:53:35;;;;;;;;;;;;;;;15.63;76.60;102682.03;5052721;28;20357;-59
2022/07/09 04:56:00;;;;;;;;;;;;;;;15.68;76.41;102678.88;5051636;28;19960;-59
2022/07/09 04:58:25;;;;;;;;;;;;;;;15.73;78.99;102673.94;5053050;28;19971;-60
2022/07/09 05:00:50;;;;;;;;;;;;;;;15.72;77.55;102675.78;5049729;28;19959;-58
2022/07/09 05:03:16;;;;;;;;;;;;;;;15.77;77.38;102671.78;5046307;28;19931;-57
2022/07/09 05:05:41;;;;;;;;;;;;;;;15.81;76.64;102678.53;5051290;28;19924;-58
2022/07/09 05:08:06;;;;;;;;;;;;;;;15.84;76.98;102675.56;5073320;28;19989;-58
2022/07/09 05:10:31;;;;;;;;;;;;;;;15.84;77.00;102664.88;5053579;28;20294;-57
2022/07/09 05:12:56;;;;;;;;;;;;;;;15.87;78.05;102669.91;5054608;28;19924;-58
2022/07/09 05:15:22;;;;;;;;;;;;;;;15.90;77.57;102672.28;5058808;28;20005;-58
2022/07/09 05:17:47;;;;;;;;;;;;;;;15.95;77.59;102670.03;5054315;28;19924;-59
2022/07/09 05:20:12;;;;;;;;;;;;;;;16.00;77.66;102667.72;5054781;28;19931;-60
2022/07/09 05:22:38;;;;;;;;;;;;;;;16.06;78.05;102671.63;5069819;28;19924;-57
2022/07/09 05:25:04;;;;;;;;;;;;;;;16.10;78.07;102672.97;5056962;28;19924;-59
2022/07/09 05:27:29;;;;;;;;;;;;;;;16.14;77.63;102673.53;5059094;28;20383;-59
2022/07/09 05:29:55;;;;;;;;;;;;;;;16.16;77.66;102670.69;5054975;28;19936;-58
2022/07/09 05:32:20;;;;;;;;;;;;;;;16.19;78.15;102665.06;5054987;28;19932;-58
2022/07/09 05:34:45;;;;;;;;;;;;;;;16.19;77.79;102673.91;5060547;28;19928;-59
2022/07/09 05:37:11;;;;;;;;;;;;;;;16.23;78.07;102672.59;5058502;28;19925;-57
2022/07/09 05:39:36;;;;;;;;;;;;;;;16.27;77.46;102679.34;5055020;28;20378;-57
2022/07/09 05:42:01;;;;;;;;;;;;;;;16.25;77.95;102675.97;5051358;28;19931;-58
2022/07/09 05:44:26;;;;;;;;;;;;;;;16.23;77.81;102677.97;5052505;28;19929;-57
2022/07/09 05:46:51;;;;;;;;;;;;;;;16.25;78.12;102675.97;5061081;28;19931;-58
2022/07/09 05:49:17;;;;;;;;;;;;;;;16.27;77.99;102663.28;5060560;28;19925;-59
2022/07/09 05:51:42;;;;;;;;;;;;;;;16.30;78.59;102661.28;5058930;28;19924;-58
2022/07/09 05:54:08;;;;;;;;;;;;;;;16.32;78.95;102668.16;5052930;28;20855;-58
2022/07/09 05:56:34;;;;;;;;;;;;;;;16.36;78.72;102666.88;5052058;28;20039;-60
2022/07/09 05:58:59;;;;;;;;;;;;;;;16.42;79.20;102669.91;5059721;28;19924;-58
2022/07/09 06:01:24;;;;;;;;;;;;;;;16.43;78.65;102667.06;5057254;28;19928;-57
2022/07/09 06:03:50;;;;;;;;;;;;;;;16.46;78.84;102661.41;5055614;28;19936;-57
2022/07/09 06:06:15;;;;;;;;;;;;;;;16.52;79.10;102671.50;5057470;28;19925;-60
2022/07/09 06:08:40;;;;;;;;;;;;;;;16.52;78.56;102666.13;5056078;28;19970;-58
2022/07/09 06:11:06;;;;;;;;;;;;;;;16.58;78.22;102674.56;5055274;28;19994;-59
2022/07/09 06:13:31;;;;;;;;;;;;;;;16.60;77.86;102675.22;5054262;28;19973;-58
2022/07/09 06:15:56;;;;;;;;;;;;;;;16.65;77.82;102675.59;5054775;28;19924;-59
2022/07/09 06:18:22;;;;;;;;;;;;;;;16.69;77.44;102676.97;5059330;28;20455;-59
2022/07/09 06:20:47;;;;;;;;;;;;;;;16.74;77.93;102677.34;5058101;28;19931;-58
2022/07/09 06:23:13;;;;;;;;;;;;;;;16.80;77.93;102679.41;5044297;28;19924;-57
2022/07/09 06:25:38;;;;;;;;;;;;;;;16.88;77.71;102673.22;5056194;28;19924;-59
2022/07/09 06:28:04;;;;;;;;;;;;;;;16.95;78.12;102670.75;5056629;28;20690;-58
2022/07/09 06:30:30;;;;;;;;;;;;;;;17.02;77.65;102679.88;5049978;28;20414;-58
2022/07/09 06:32:55;;;;;;;;;;;;;;;17.08;77.80;102681.09;5054325;28;19921;-58
2022/07/09 06:35:21;;;;;;;;;;;;;;;17.17;78.00;102684.66;5054356;28;19931;-59
2022/07/09 06:37:46;;;;;;;;;;;;;;;17.25;77.28;102686.50;5057136;28;20272;-57
2022/07/09 06:40:12;;;;;;;;;;;;;;;17.30;77.46;102679.66;5063026;28;20019;-58
2022/07/09 06:42:38;;;;;;;;;;;;;;;17.32;78.91;102676.84;5054953;28;19924;-57
2022/07/09 06:45:04;;;;;;;;;;;;;;;17.39;78.96;102682.38;5056456;28;20425;-60
2022/07/09 06:47:29;;;;;;;;;;;;;;;17.45;77.66;102681.72;5056194;28;19928;-58
2022/07/09 06:49:54;;;;;;;;;;;;;;;17.52;77.96;102698.84;5057287;28;20075;-58
2022/07/09 06:52:20;;;;;;;;;;;;;;;17.50;77.99;102690.13;5056625;28;19929;-59
2022/07/09 06:54:45;;;;;;;;;;;;;;;17.55;77.93;102686.94;5058749;28;19925;-57
2022/07/09 06:57:10;;;;;;;;;;;;;;;17.64;77.76;102685.13;5055871;28;19951;-57
2022/07/09 06:59:36;;;;;;;;;;;;;;;17.68;77.99;102683.81;5057293;28;19968;-58
2022/07/09 07:02:01;;;;;;;;;;;;;;;17.78;78.59;102681.81;5053272;28;19931;-59
2022/07/09 07:04:26;;;;;;;;;;;;;;;17.83;78.29;102679.50;5056041;28;19924;-59
2022/07/09 07:06:52;;;;;;;;;;;;;;;17.97;78.84;102685.22;5053646;28;19946;-57
2022/07/09 07:09:23;;;;;;;;;;;;;;;18.02;78.07;102685.56;5060037;28;20294;-58
2022/07/09 07:11:49;;;;;;;;;;;;;;;18.05;77.88;102687.91;5051167;28;19925;-58
2022/07/09 07:14:15;;;;;;;;;;;;;;;18.09;78.34;102680.38;5056193;28;20409;-59
2022/07/09 07:16:40;;;;;;;;;;;;;;;18.10;77.91;102679.38;5054983;28;19928;-58
2022/07/09 07:19:05;;;;;;;;;;;;;;;18.10;77.84;102695.47;5059884;28;20387;-57
2022/07/09 07:21:30;;;;;;;;;;;;;;;18.15;77.77;102680.56;5040174;28;19924;-58
2022/07/09 07:23:56;;;;;;;;;;;;;;;18.25;77.86;102677.69;5056570;28;19929;-58
2022/07/09 07:26:21;;;;;;;;;;;;;;;18.36;77.58;102684.56;5051422;28;19925;-58
2022/07/09 07:28:46;;;;;;;;;;;;;;;18.44;79.96;102677.53;5050196;28;19931;-59
2022/07/09 07:31:11;;;;;;;;;;;;;;;18.48;80.12;102677.03;5049317;28;19924;-59
2022/07/09 07:33:38;;;;;;;;;;;;;;;18.55;78.36;102682.53;5056264;28;20415;-57
2022/07/09 07:36:03;;;;;;;;;;;;;;;18.62;77.87;102685.41;5054692;28;19931;-59
2022/07/09 07:38:28;;;;;;;;;;;;;;;18.68;78.19;102682.88;5048039;28;20023;-59
2022/07/09 07:40:54;;;;;;;;;;;;;;;18.83;77.80;102690.22;5052105;28;20792;-57
2022/07/09 07:43:19;;;;;;;;;;;;;;;18.88;77.73;102682.50;5054024;28;19929;-58
2022/07/09 07:45:44;;;;;;;;;;;;;;;19.02;77.23;102677.41;5069026;28;19924;-56
2022/07/09 07:48:10;;;;;;;;;;;;;;;19.13;76.93;102684.31;5050732;28;20310;-58
2022/07/09 07:50:38;;;;;;;;;;;;;;;19.12;76.80;102686.16;5051268;28;19931;-59
2022/07/09 07:53:03;;;;;;;;;;;;;;;19.13;77.06;102690.50;5056023;28;19924;-58
2022/07/09 07:55:28;;;;;;;;;;;;;;;19.12;76.84;102688.84;5057731;28;20339;-59
2022/07/09 07:57:54;;;;;;;;;;;;;;;19.15;77.08;102693.03;5052358;28;19931;-58
2022/07/09 08:00:19;;;;;;;;;;;;;;;19.17;77.55;102685.63;5051708;28;19929;-56
2022/07/09 08:02:44;;;;;;;;;;;;;;;19.30;77.01;102685.06;5053038;28;19924;-57
2022/07/09 08:05:09;;;;;;;;;;;;;;;19.34;77.31;102681.03;5051219;28;19939;-56
2022/07/09 08:07:34;;;;;;;;;;;;;;;19.35;76.40;102682.69;5055418;28;19969;-55
2022/07/09 08:09:59;;;;;;;;;;;;;;;19.30;76.51;102685.06;5051447;28;20007;-59
2022/07/09 08:12:25;;;;;;;;;;;;;;;19.31;76.56;102681.38;5049600;28;20363;-57
2022/07/09 08:14:50;;;;;;;;;;;;;;;19.34;76.50;102676.47;5049513;28;20341;-55
2022/07/09 08:17:15;;;;;;;;;;;;;;;19.40;76.53;102674.09;5047203;28;19924;-57
2022/07/09 08:19:40;;;;;;;;;;;;;;;19.47;76.06;102670.53;5050446;28;19959;-56
2022/07/09 08:22:06;;;;;;;;;;;;;;;19.59;75.73;102668.25;5049248;28;19939;-56
2022/07/09 08:24:31;;;;;;;;;;;;;;;19.70;75.25;102652.75;5049613;28;19924;-55
2022/07/09 08:26:58;;;;;;;;;;;;;;;19.84;75.10;102653.81;5047616;28;20424;-56
2022/07/09 08:29:25;;;;;;;;;;;;;;;19.90;74.12;102653.91;5047469;28;21309;-59
2022/07/09 08:31:51;;;;;;;;;;;;;;;19.99;74.20;102656.59;5050739;28;20298;-55
2022/07/09 08:34:16;;;;;;;;;;;;;;;20.03;74.08;102656.06;5047949;28;19925;-56
2022/07/09 08:36:41;;;;;;;;;;;;;;;20.03;74.53;102663.28;5053174;28;20359;-54
2022/07/09 08:39:06;;;;;;;;;;;;;;;20.03;74.14;102647.13;5050224;28;19925;-56
2022/07/09 08:41:32;;;;;;;;;;;;;;;19.96;74.27;102638.94;5048709;28;20864;-56
2022/07/09 08:43:57;;;;;;;;;;;;;;;20.05;73.91;102634.34;5047529;28;19936;-59
2022/07/09 08:46:23;;;;;;;;;;;;;;;20.18;73.88;102641.78;5051833;28;20318;-53
2022/07/09 08:48:49;;;;;;;;;;;;;;;20.29;73.69;102638.66;5052941;28;20394;-55
2022/07/09 08:51:14;;;;;;;;;;;;;;;20.43;73.29;102633.50;5054886;28;19994;-55
2022/07/09 08:53:40;;;;;;;;;;;;;;;20.49;73.08;102632.75;5053941;28;20007;-58
2022/07/09 08:56:06;;;;;;;;;;;;;;;20.54;72.93;102632.19;5052284;28;20066;-56
2022/07/09 08:58:31;;;;;;;;;;;;;;;20.53;72.21;102636.75;5049287;28;19933;-57
2022/07/09 09:00:58;;;;;;;;;;;;;;;20.50;71.92;102645.22;5046013;28;19943;-58
2022/07/09 09:03:23;;;;;;;;;;;;;;;20.41;72.39;102633.66;5049653;28;20358;-60
2022/07/09 09:06:05;;;;;;;;;;;;;;;20.49;72.39;102630.06;5045765;28;19963;-60
2022/07/09 09:08:35;;;;;;;;;;;;;;;20.60;71.80;102628.75;5047768;28;19929;-60
2022/07/09 09:11:00;;;;;;;;;;;;;;;20.61;71.33;102635.00;5042597;28;20416;-61
2022/07/09 09:13:25;;;;;;;;;;;;;;;20.51;71.45;102633.41;5046467;28;19924;-61
2022/07/09 09:16:01;;;;;;;;;;;;;;;20.46;71.77;102641.19;5060546;28;19925;-61
2022/07/09 09:18:26;;;;;;;;;;;;;;;20.43;70.73;102636.19;5046209;28;19930;-58
2022/07/09 09:20:51;;;;;;;;;;;;;;;20.41;71.49;102627.44;5045876;28;20019;-60
2022/07/09 09:23:16;;;;;;;;;;;;;;;20.39;71.83;102633.00;5050078;28;19978;-61
2022/07/09 09:25:42;;;;;;;;;;;;;;;20.42;71.74;102629.94;5051147;28;19924;-55
2022/07/09 09:28:08;;;;;;;;;;;;;;;20.40;71.44;102628.47;5048474;28;19970;-59
2022/07/09 09:30:40;;;;;;;;;;;;;;;20.35;71.61;102630.88;5046747;28;20023;-60
2022/07/09 09:33:05;;;;;;;;;;;;;;;20.34;71.71;102629.19;5046295;28;19954;-59
2022/07/09 09:35:33;;;;;;;;;;;;;;;20.35;71.70;102630.88;5048874;28;20031;-58
2022/07/09 09:37:58;;;;;;;;;;;;;;;20.38;71.86;102628.63;5047272;28;19931;-56
2022/07/09 09:40:24;;;;;;;;;;;;;;;20.38;71.63;102627.81;5047136;28;19928;-59
2022/07/09 09:42:49;;;;;;;;;;;;;;;20.39;72.04;102616.00;5047495;28;20626;-61
2022/07/09 09:45:15;;;;;;;;;;;;;;;20.45;71.69;102623.34;5048499;28;19932;-60
2022/07/09 09:47:46;;;;;;;;;;;;;;;20.39;71.84;102627.59;5052094;28;19928;-62
2022/07/09 09:50:15;;;;;;;;;;;;;;;20.32;72.96;102633.94;5049578;28;20400;-62
2022/07/09 09:52:41;;;;;;;;;;;;;;;20.22;72.68;102635.03;5048358;28;20033;-61
2022/07/09 09:55:06;;;;;;;;;;;;;;;20.07;72.57;102626.09;5050256;28;20411;-61
2022/07/09 09:57:32;;;;;;;;;;;;;;;19.98;73.45;102630.69;5047485;28;20009;-61
2022/07/09 09:59:57;;;;;;;;;;;;;;;19.94;72.99;102627.50;5047056;28;19940;-62
2022/07/09 10:02:23;;;;;;;;;;;;;;;19.86;72.92;102624.84;5051794;28;19925;-60
2022/07/09 10:04:49;;;;;;;;;;;;;;;19.83;72.96;102620.66;5054617;28;19924;-60
2022/07/09 10:07:15;;;;;;;;;;;;;;;19.86;73.26;102630.25;5054435;28;20594;-59
2022/07/09 10:09:40;;;;;;;;;;;;;;;19.92;73.42;102624.13;5053030;28;19929;-59
2022/07/09 10:12:06;;;;;;;;;;;;;;;19.99;72.78;102625.13;5049379;28;19955;-59
2022/07/09 10:14:36;;;;;;;;;;;;;;;20.06;73.03;102624.38;5049689;28;19929;-62
2022/07/09 10:17:15;;;;;;;;;;;;;;;20.10;73.25;102620.31;5050737;28;19932;-60
2022/07/09 10:19:54;;;;;;;;;;;;;;;20.10;72.81;102621.16;5050192;28;20378;-63
2022/07/09 10:22:20;;;;;;;;;;;;;;;20.12;73.01;102623.66;5048389;28;20240;-59
2022/07/09 10:24:46;;;;;;;;;;;;;;;20.11;73.04;102616.59;5049444;28;20363;-63
2022/07/09 10:27:12;;;;;;;;;;;;;;;20.14;72.74;102621.66;5054010;28;19928;-58
2022/07/09 10:29:52;;;;;;;;;;;;;;;20.08;72.76;102617.00;5057564;28;19978;-60
2022/07/09 10:32:26;;;;;;;;;;;;;;;20.12;72.70;102623.66;5056669;28;20016;-63
2022/07/09 10:35:00;;;;;;;;;;;;;;;20.25;71.98;102626.59;5052922;28;19975;-62
2022/07/09 10:37:33;;;;;;;;;;;;;;;20.26;71.97;102625.56;5050138;28;19928;-61
2022/07/09 10:40:10;;;;;;;;;;;;;;;20.26;71.92;102625.56;5047512;28;20046;-60
2022/07/09 10:42:35;;;;;;;;;;;;;;;20.22;72.30;102615.34;5048535;28;19928;-60
2022/07/09 10:45:00;;;;;;;;;;;;;;;20.37;71.80;102620.75;5050669;28;19924;-61
2022/07/09 10:47:36;;;;;;;;;;;;;;;20.73;71.60;102619.19;5052291;28;19924;-59
2022/07/09 10:50:03;;;;;;;;;;;;;;;20.93;70.49;102611.41;5048877;28;20311;-60
2022/07/09 10:52:31;;;;;;;;;;;;;;;21.05;70.21;102609.88;5048768;28;20386;-62
2022/07/09 10:54:56;;;;;;;;;;;;;;;21.34;69.61;102610.00;5050014;28;19951;-60
2022/07/09 10:57:21;;;;;;;;;;;;;;;21.53;67.98;102619.34;5051016;28;19924;-60
2022/07/09 10:59:47;;;;;;;;;;;;;;;21.57;67.48;102614.41;5051317;28;19936;-61
2022/07/09 11:02:19;;;;;;;;;;;;;;;21.69;66.51;102617.41;5065677;28;19935;-60
2022/07/09 11:04:47;;;;;;;;;;;;;;;21.82;66.15;102622.13;5047994;28;19928;-61
2022/07/09 11:07:18;;;;;;;;;;;;;;;21.73;66.89;102619.59;5051215;28;19939;-60
2022/07/09 11:09:43;;;;;;;;;;;;;;;21.73;66.83;102616.03;5050087;28;19935;-61
2022/07/09 11:12:09;;;;;;;;;;;;;;;21.70;66.10;102619.94;5063787;28;19928;-60
2022/07/09 11:14:42;;;;;;;;;;;;;;;21.68;66.08;102623.84;5049394;28;20019;-60
2022/07/09 11:17:07;;;;;;;;;;;;;;;21.62;66.61;102628.97;5048503;28;19975;-60
2022/07/09 11:19:32;;;;;;;;;;;;;;;21.62;65.89;102626.28;5064406;28;22497;-60
2022/07/09 11:22:02;;;;;;;;;;;;;;;21.39;66.26;102628.31;5050413;28;19924;-62
2022/07/09 11:24:29;;;;;;;;;;;;;;;21.37;66.85;102625.81;5030366;28;19994;-60
2022/07/09 11:26:54;;;;;;;;;;;;;;;21.59;66.98;102633.94;5048831;28;19920;-60
2022/07/09 11:29:19;;;;;;;;;;;;;;;21.89;64.07;102629.28;5049742;28;19943;-60
2022/07/09 11:31:51;;;;;;;;;;;;;;;21.90;63.18;102630.94;5048985;28;20019;-61
2022/07/09 11:34:17;;;;;;;;;;;;;;;21.59;63.85;102629.38;5045508;28;20406;-60
2022/07/09 11:36:43;;;;;;;;;;;;;;;21.69;62.97;102633.59;5047876;28;20050;-60
2022/07/09 11:39:08;;;;;;;;;;;;;;;21.55;63.33;102633.47;5048927;28;19932;-60
2022/07/09 11:41:41;;;;;;;;;;;;;;;21.46;64.33;102623.84;5047703;28;19956;-60
2022/07/09 11:44:06;;;;;;;;;;;;;;;21.37;64.35;102637.44;5048246;28;19924;-60
2022/07/09 11:46:31;;;;;;;;;;;;;;;21.45;63.84;102627.53;5048866;28;19925;-60
2022/07/09 11:48:57;;;;;;;;;;;;;;;21.30;63.85;102628.44;5049398;28;19935;-59
2022/07/09 11:51:30;;;;;;;;;;;;;;;21.50;62.76;102625.97;5063195;28;19925;-61
2022/07/09 11:53:55;;;;;;;;;;;;;;;21.54;63.40;102623.72;5050322;28;19920;-61
2022/07/09 11:56:21;;;;;;;;;;;;;;;21.67;63.89;102619.47;5051442;28;19924;-60
2022/07/09 11:58:52;;;;;;;;;;;;;;;21.85;63.83;102619.06;5049453;28;19932;-60
2022/07/09 12:01:17;;;;;;;;;;;;;;;21.72;62.00;102628.69;5056814;28;19928;-62
2022/07/09 12:03:49;;;;;;;;;;;;;;;21.54;62.00;102620.16;5051938;28;19925;-62
2022/07/09 12:06:14;;;;;;;;;;;;;;;21.46;62.28;102618.44;5052418;28;19949;-60
2022/07/09 12:08:40;;;;;;;;;;;;;;;21.60;62.52;102625.66;5051600;28;20391;-63
2022/07/09 12:11:05;;;;;;;;;;;;;;;21.72;62.25;102614.38;5047409;28;19954;-62
2022/07/09 12:13:30;;;;;;;;;;;;;;;21.99;60.60;102611.88;5067734;28;19928;-60
2022/07/09 12:15:55;;;;;;;;;;;;;;;21.95;59.79;102616.03;5063205;28;19952;-61
2022/07/09 12:18:21;;;;;;;;;;;;;;;21.91;59.76;102621.00;5049687;28;19936;-60
2022/07/09 12:20:46;;;;;;;;;;;;;;;21.80;59.28;102622.31;5048665;28;19929;-63
2022/07/09 12:23:11;;;;;;;;;;;;;;;21.75;60.35;102624.75;5062446;28;19986;-60
2022/07/09 12:25:36;;;;;;;;;;;;;;;21.93;59.07;102623.47;5049059;28;19925;-61
2022/07/09 12:28:01;;;;;;;;;;;;;;;21.97;58.35;102619.34;5046991;28;19985;-60